McCoy, Texas
Current Conditions -  °F | °C
As of 6:35 AM on Friday 24 Oct 2014 (Local Time) from KPEZ Reporting Station
Clear Clear  
Wind Chill: 57°   Ceiling: Unl
Heat Index: 57°   Visibility: 10mi
Dew Point: 55°   Wind: 0mph
Humidity: 91%   Direction: NA
Pressure: 30.13"   Gusts: NA
Location:  28.86°N, 98.35°W
Report Text: KPEZ 241135Z AUTO 00000KT 10SM CLR 14/13 A3013 RMK AO2 T01410126
Loading
Personal Weather Stations






























Interactive Weather Map
Tropical Storm Tracking
New forecast layout! Learn more

10-Day Weather Forecast

Advertisements
Track Severe Weather on mobile